Time;durP1;ratioP1;P1;durP2;ratioP2;P2;SDS_P1;SDS_P2;PMS_P1;PMS_P2;Temp;Humidity;BMP_temperature;BMP_pressure;BME280_temperature;BME280_humidity;BME280_pressure;Samples;Min_cycle;Max_cycle;Signal;HPM_P1;HPM_P2
2021/05/25 00:01:37;;;;;;;2.87;2.67;;;14.00;99.90;;;;;;5039701;28;20188;-67
2021/05/25 00:04:03;;;;;;;2.87;2.67;;;13.90;99.90;;;;;;5032168;28;20657;-67
2021/05/25 00:06:28;;;;;;;2.87;2.53;;;14.00;99.90;;;;;;5031931;28;20203;-67
2021/05/25 00:08:54;;;;;;;2.67;2.37;;;13.90;99.90;;;;;;5032011;28;20222;-67
2021/05/25 00:11:19;;;;;;;2.30;2.10;;;13.90;99.90;;;;;;5041843;28;20188;-66
2021/05/25 00:13:45;;;;;;;3.27;2.97;;;13.80;99.90;;;;;;5034955;28;20216;-66
2021/05/25 00:16:11;;;;;;;2.67;2.47;;;13.60;99.90;;;;;;5039153;28;20211;-67
2021/05/25 00:18:37;;;;;;;2.70;2.50;;;13.60;99.90;;;;;;5036402;28;20261;-66
2021/05/25 00:21:03;;;;;;;2.93;2.60;;;13.60;99.90;;;;;;5038549;28;20188;-66
2021/05/25 00:23:29;;;;;;;2.70;2.50;;;13.50;99.90;;;;;;5037886;28;20635;-67
2021/05/25 00:25:54;;;;;;;2.77;2.47;;;13.50;99.90;;;;;;5035192;28;20637;-67
2021/05/25 00:28:20;;;;;;;2.43;2.27;;;13.50;99.90;;;;;;5039668;28;20204;-66
2021/05/25 00:30:47;;;;;;;2.37;2.10;;;13.50;99.90;;;;;;5037135;28;20674;-67
2021/05/25 00:33:12;;;;;;;2.30;2.20;;;13.50;99.90;;;;;;5037772;28;20558;-66
2021/05/25 00:35:40;;;;;;;2.27;2.17;;;13.50;99.90;;;;;;5035665;28;20635;-67
2021/05/25 00:38:06;;;;;;;2.90;2.67;;;13.40;99.90;;;;;;5039061;28;20188;-66
2021/05/25 00:40:32;;;;;;;2.30;2.20;;;13.50;99.90;;;;;;5037980;28;20634;-66
2021/05/25 00:42:57;;;;;;;2.53;2.33;;;13.50;99.90;;;;;;5033041;28;20614;-66
2021/05/25 00:45:23;;;;;;;2.80;2.60;;;13.50;99.90;;;;;;5036582;28;20192;-66
2021/05/25 00:47:49;;;;;;;2.70;2.47;;;13.40;99.90;;;;;;5038391;28;20180;-67
2021/05/25 00:50:22;;;;;;;3.07;2.47;;;13.40;99.90;;;;;;5037831;28;20204;-66
2021/05/25 00:52:51;;;;;;;3.63;2.43;;;13.50;99.90;;;;;;5036551;28;20579;-66
2021/05/25 00:55:22;;;;;;;2.80;2.60;;;13.50;99.90;;;;;;5038473;28;21209;-67
2021/05/25 00:57:50;;;;;;;2.80;2.60;;;13.60;99.90;;;;;;5038513;28;20664;-66
2021/05/25 01:00:19;;;;;;;3.17;2.87;;;13.50;99.90;;;;;;5032254;28;20610;-69
2021/05/25 01:02:45;;;;;;;3.47;3.17;;;13.50;99.90;;;;;;5054055;28;21142;-66
2021/05/25 01:05:13;;;;;;;2.80;2.60;;;13.50;99.90;;;;;;5041634;28;20664;-66
2021/05/25 01:07:40;;;;;;;2.60;2.50;;;13.60;99.90;;;;;;5037100;28;20192;-66
2021/05/25 01:10:07;;;;;;;2.70;2.50;;;13.60;99.90;;;;;;5040877;28;20653;-66
2021/05/25 01:12:35;;;;;;;4.00;3.10;;;13.60;99.90;;;;;;5052118;28;20625;-66
2021/05/25 01:15:06;;;;;;;2.87;2.63;;;13.40;99.90;;;;;;5041387;28;20626;-66
2021/05/25 01:17:33;;;;;;;3.10;2.80;;;13.40;99.90;;;;;;5041657;28;20618;-66
2021/05/25 01:20:04;;;;;;;2.83;2.63;;;13.40;99.90;;;;;;5034120;28;20658;-66
2021/05/25 01:22:29;;;;;;;2.50;2.40;;;13.40;99.90;;;;;;5040810;28;20610;-66
2021/05/25 01:24:55;;;;;;;2.70;2.50;;;13.40;99.90;;;;;;5039213;28;21005;-66
2021/05/25 01:27:21;;;;;;;3.47;3.17;;;13.40;99.90;;;;;;5053166;28;20186;-66
2021/05/25 01:29:47;;;;;;;2.90;2.70;;;13.40;99.90;;;;;;5039743;28;20728;-66
2021/05/25 01:32:16;;;;;;;3.30;2.77;;;13.40;99.90;;;;;;5039090;28;20548;-66
2021/05/25 01:34:44;;;;;;;2.77;2.57;;;13.40;99.90;;;;;;5038608;28;20634;-67
2021/05/25 01:37:10;;;;;;;4.20;2.53;;;13.40;99.90;;;;;;5036997;28;20638;-66
2021/05/25 01:39:35;;;;;;;2.87;2.67;;;13.40;99.90;;;;;;5041194;28;20707;-66
2021/05/25 01:42:01;;;;;;;2.70;2.50;;;13.40;99.90;;;;;;5034677;28;20262;-66
2021/05/25 01:44:26;;;;;;;3.00;2.37;;;13.30;99.90;;;;;;5038033;28;20220;-66
2021/05/25 01:46:52;;;;;;;3.63;2.80;;;13.30;99.90;;;;;;5040540;28;20373;-66
2021/05/25 01:49:19;;;;;;;2.83;2.63;;;13.30;99.90;;;;;;5037833;28;20208;-66
2021/05/25 01:51:46;;;;;;;3.00;2.43;;;13.40;99.90;;;;;;5040543;28;20247;-66
2021/05/25 01:54:12;;;;;;;2.60;2.40;;;13.40;99.90;;;;;;5030541;28;20637;-69
2021/05/25 01:56:38;;;;;;;2.83;2.60;;;13.30;99.90;;;;;;5038892;28;20611;-66
2021/05/25 01:59:03;;;;;;;2.80;2.60;;;13.40;99.90;;;;;;5039980;28;20275;-69
2021/05/25 02:01:29;;;;;;;3.40;3.10;;;13.30;99.90;;;;;;5040445;28;20734;-66
2021/05/25 02:03:55;;;;;;;4.90;3.00;;;13.30;99.90;;;;;;5037599;28;20574;-67
2021/05/25 02:06:20;;;;;;;2.87;2.67;;;13.20;99.90;;;;;;5038239;28;20278;-66
2021/05/25 02:08:46;;;;;;;3.30;3.00;;;13.20;99.90;;;;;;5037396;28;20329;-66
2021/05/25 02:11:12;;;;;;;3.73;2.80;;;13.20;99.90;;;;;;5042042;28;20692;-66
2021/05/25 02:13:39;;;;;;;2.97;2.70;;;13.20;99.90;;;;;;5040635;28;20219;-67
2021/05/25 02:16:08;;;;;;;3.43;3.23;;;13.20;99.90;;;;;;5038976;28;20632;-66
2021/05/25 02:18:37;;;;;;;3.43;3.13;;;13.20;99.90;;;;;;5038975;28;21017;-66
2021/05/25 02:21:05;;;;;;;3.47;3.17;;;13.10;99.90;;;;;;5030629;28;20668;-68
2021/05/25 02:23:31;;;;;;;3.63;3.43;;;13.10;99.90;;;;;;5037968;28;20708;-66
2021/05/25 02:25:57;;;;;;;3.67;3.37;;;13.00;99.90;;;;;;5041070;28;21114;-68
2021/05/25 02:28:23;;;;;;;3.63;3.43;;;12.90;99.90;;;;;;5040291;28;20643;-68
2021/05/25 02:30:50;;;;;;;3.57;3.27;;;12.90;99.90;;;;;;5039649;28;20638;-66
2021/05/25 02:33:19;;;;;;;3.80;3.50;;;12.80;99.90;;;;;;5039496;28;20658;-66
2021/05/25 02:35:47;;;;;;;3.20;3.00;;;12.80;99.90;;;;;;5004291;28;1044389;-67
2021/05/25 02:38:13;;;;;;;3.40;3.20;;;12.80;99.90;;;;;;5038156;28;20248;-66
2021/05/25 02:40:40;;;;;;;3.50;3.20;;;12.70;99.90;;;;;;5043914;28;20981;-66
2021/05/25 02:43:06;;;;;;;3.57;3.27;;;12.90;99.90;;;;;;5041616;28;20646;-66
2021/05/25 02:45:34;;;;;;;3.60;3.30;;;12.80;99.90;;;;;;5037816;28;21178;-69
2021/05/25 02:48:00;;;;;;;4.13;3.77;;;12.80;99.90;;;;;;5041566;28;20628;-68
2021/05/25 02:50:26;;;;;;;3.60;3.30;;;12.80;99.90;;;;;;5037415;28;20658;-66
2021/05/25 02:52:53;;;;;;;3.23;3.03;;;12.80;99.90;;;;;;5042027;28;20935;-68
2021/05/25 02:55:21;;;;;;;2.90;2.70;;;12.70;99.90;;;;;;5038409;28;20978;-66
2021/05/25 02:57:47;;;;;;;3.30;2.97;;;12.80;99.90;;;;;;5056588;28;20654;-68
2021/05/25 03:00:16;;;;;;;3.77;3.47;;;12.90;99.90;;;;;;5039002;28;20674;-66
2021/05/25 03:02:42;;;;;;;6.10;3.00;;;12.90;99.90;;;;;;5037175;28;20210;-67
2021/05/25 03:05:10;;;;;;;2.80;2.60;;;12.80;99.90;;;;;;5036182;28;21480;-66
2021/05/25 03:07:37;;;;;;;3.50;3.20;;;12.80;99.90;;;;;;5032427;28;20636;-66
2021/05/25 03:10:05;;;;;;;2.73;2.53;;;12.90;99.90;;;;;;5035384;28;20655;-66
2021/05/25 03:12:31;;;;;;;3.27;2.97;;;12.80;99.90;;;;;;5037121;28;21189;-68
2021/05/25 03:14:57;;;;;;;3.33;3.00;;;12.90;99.90;;;;;;5030375;28;20666;-66
2021/05/25 03:17:22;;;;;;;3.83;2.90;;;13.00;99.90;;;;;;5027227;28;20184;-68
2021/05/25 03:19:49;;;;;;;3.77;3.47;;;12.80;99.90;;;;;;5036363;28;20644;-68
2021/05/25 03:22:15;;;;;;;3.30;3.00;;;12.70;99.90;;;;;;5038053;28;20200;-66
2021/05/25 03:24:41;;;;;;;3.60;3.30;;;12.60;99.90;;;;;;5025681;28;20645;-67
2021/05/25 03:27:06;;;;;;;3.80;3.50;;;12.70;99.90;;;;;;5029109;28;20836;-66
2021/05/25 03:29:32;;;;;;;3.80;3.50;;;12.70;99.90;;;;;;5034782;28;20220;-66
2021/05/25 03:31:58;;;;;;;4.10;3.80;;;12.70;99.90;;;;;;5028276;28;20180;-66
2021/05/25 03:34:23;;;;;;;3.50;3.20;;;12.80;99.90;;;;;;5031260;28;20235;-67
2021/05/25 03:36:49;;;;;;;3.40;3.10;;;12.90;99.90;;;;;;5035625;28;20191;-66
2021/05/25 03:39:14;;;;;;;4.07;3.40;;;12.80;99.90;;;;;;5033610;28;20208;-68
2021/05/25 03:41:40;;;;;;;4.80;3.73;;;12.70;99.90;;;;;;5030235;28;20192;-68
2021/05/25 03:44:12;;;;;;;4.30;3.90;;;12.60;99.90;;;;;;5030417;28;20223;-68
2021/05/25 03:46:38;;;;;;;4.27;3.97;;;12.60;99.90;;;;;;5031310;28;20248;-65
2021/05/25 03:49:04;;;;;;;4.87;4.47;;;12.70;99.90;;;;;;5031303;28;20666;-66
2021/05/25 03:51:30;;;;;;;4.80;4.40;;;12.70;99.90;;;;;;5035741;28;20184;-70
2021/05/25 03:53:57;;;;;;;5.67;4.67;;;12.50;99.90;;;;;;5035987;28;20983;-66
2021/05/25 03:56:30;;;;;;;4.97;4.67;;;12.60;99.90;;;;;;5029741;28;20699;-66
2021/05/25 03:58:55;;;;;;;5.73;4.77;;;12.50;99.90;;;;;;5048999;28;20657;-66
2021/05/25 04:01:28;;;;;;;5.40;5.00;;;12.50;99.90;;;;;;5046224;28;20627;-67
2021/05/25 04:03:56;;;;;;;5.10;4.70;;;12.50;99.90;;;;;;5034092;28;20296;-68
2021/05/25 04:06:22;;;;;;;5.40;4.90;;;12.50;99.90;;;;;;5028596;28;20729;-66
2021/05/25 04:08:49;;;;;;;4.67;4.27;;;12.40;99.90;;;;;;5028387;28;20670;-66
2021/05/25 04:11:16;;;;;;;5.10;4.70;;;12.50;99.90;;;;;;5035519;28;20614;-67
2021/05/25 04:13:41;;;;;;;5.30;4.90;;;12.50;99.90;;;;;;5030343;28;20643;-66
2021/05/25 04:16:09;;;;;;;4.10;3.80;;;12.50;99.90;;;;;;5031170;28;23023;-66
2021/05/25 04:18:35;;;;;;;4.50;4.10;;;12.50;99.90;;;;;;5034766;28;20230;-68
2021/05/25 04:21:01;;;;;;;3.80;3.50;;;12.50;99.90;;;;;;5034155;28;20630;-68
2021/05/25 04:23:26;;;;;;;4.23;3.93;;;12.60;99.90;;;;;;5036084;28;21092;-66
2021/05/25 04:25:52;;;;;;;4.07;3.80;;;12.70;99.90;;;;;;5036419;28;20719;-68
2021/05/25 04:28:20;;;;;;;3.40;3.17;;;12.60;99.90;;;;;;5027184;28;20220;-66
2021/05/25 04:30:46;;;;;;;3.47;3.27;;;12.60;99.90;;;;;;5036879;28;21521;-66
2021/05/25 04:33:12;;;;;;;3.87;3.57;;;12.60;99.90;;;;;;5039579;28;20622;-66
2021/05/25 04:35:38;;;;;;;3.47;3.20;;;12.60;99.90;;;;;;5031490;28;20204;-65
2021/05/25 04:38:05;;;;;;;3.67;3.37;;;12.70;99.90;;;;;;5040719;28;20614;-66
2021/05/25 04:40:32;;;;;;;3.30;3.10;;;12.50;99.90;;;;;;5043658;28;20614;-67
2021/05/25 04:43:01;;;;;;;4.17;3.10;;;12.60;99.90;;;;;;5035961;28;21021;-66
2021/05/25 04:45:27;;;;;;;4.10;3.60;;;12.60;99.90;;;;;;5043707;28;20727;-66
2021/05/25 04:47:53;;;;;;;4.33;3.90;;;12.50;99.90;;;;;;5042797;28;20725;-66
2021/05/25 04:50:20;;;;;;;3.80;3.50;;;12.50;99.90;;;;;;5037635;28;20216;-67
2021/05/25 04:52:46;;;;;;;3.17;2.97;;;12.50;99.90;;;;;;5030859;28;20713;-67
2021/05/25 04:55:14;;;;;;;3.70;3.40;;;12.60;99.90;;;;;;5031849;28;20642;-66
2021/05/25 04:57:41;;;;;;;3.47;3.17;;;12.50;99.90;;;;;;5031367;28;20630;-67
2021/05/25 05:00:10;;;;;;;2.70;2.60;;;12.60;99.90;;;;;;5030565;28;21221;-67
2021/05/25 05:02:36;;;;;;;3.07;2.87;;;12.50;99.90;;;;;;5012084;28;20633;-67
2021/05/25 05:05:01;;;;;;;2.87;2.67;;;12.50;99.90;;;;;;5032219;28;20715;-67
2021/05/25 05:07:27;;;;;;;4.27;3.10;;;12.40;99.90;;;;;;5029525;28;20257;-66
2021/05/25 05:09:52;;;;;;;3.07;2.87;;;12.40;99.90;;;;;;5029202;28;20212;-67
2021/05/25 05:12:18;;;;;;;2.90;2.70;;;12.40;99.90;;;;;;5036369;28;20192;-67
2021/05/25 05:14:44;;;;;;;3.40;2.70;;;12.40;99.90;;;;;;5037937;28;20699;-67
2021/05/25 05:17:09;;;;;;;2.93;2.73;;;12.50;99.90;;;;;;5041652;28;20667;-66
2021/05/25 05:19:35;;;;;;;3.03;2.73;;;12.40;99.90;;;;;;5042535;28;20323;-66
2021/05/25 05:22:00;;;;;;;3.00;2.80;;;12.40;99.90;;;;;;5032291;28;20574;-67
2021/05/25 05:24:26;;;;;;;2.90;2.40;;;12.30;99.90;;;;;;5026056;28;20275;-67
2021/05/25 05:26:52;;;;;;;5.00;2.87;;;12.40;99.90;;;;;;5021700;28;20196;-68
2021/05/25 05:29:17;;;;;;;2.70;2.50;;;12.50;99.90;;;;;;5023700;28;20227;-67
2021/05/25 05:31:45;;;;;;;2.90;2.60;;;12.50;99.90;;;;;;5012160;28;20216;-67
2021/05/25 05:34:10;;;;;;;3.00;2.70;;;12.40;99.90;;;;;;5022072;28;20292;-67
2021/05/25 05:36:36;;;;;;;2.70;2.50;;;12.40;99.90;;;;;;5032301;28;20626;-67
2021/05/25 05:39:05;;;;;;;3.30;3.00;;;12.40;99.90;;;;;;5026126;28;20243;-66
2021/05/25 05:41:31;;;;;;;3.10;2.90;;;12.30;99.90;;;;;;5021177;28;20640;-66
2021/05/25 05:44:00;;;;;;;3.30;3.00;;;12.40;99.90;;;;;;5032426;22;21043;-70
2021/05/25 05:46:25;;;;;;;3.10;2.90;;;12.50;99.90;;;;;;5012865;28;20193;-71
2021/05/25 05:48:52;;;;;;;3.57;3.27;;;12.30;99.90;;;;;;5014100;28;20662;-69
2021/05/25 05:51:18;;;;;;;3.60;3.30;;;12.40;99.90;;;;;;5010193;28;20205;-71
2021/05/25 05:53:44;;;;;;;3.17;2.87;;;12.50;99.90;;;;;;4988875;28;20632;-72
2021/05/25 05:56:10;;;;;;;3.43;3.23;;;12.50;99.90;;;;;;4989475;28;21068;-70
2021/05/25 05:58:35;;;;;;;4.73;4.07;;;12.50;99.90;;;;;;4987716;28;20240;-71
2021/05/25 06:01:01;;;;;;;3.80;3.50;;;12.60;99.90;;;;;;5003912;28;20198;-69
2021/05/25 06:03:27;;;;;;;4.87;3.90;;;12.70;99.90;;;;;;4971676;28;20217;-70
2021/05/25 06:05:52;;;;;;;4.20;3.80;;;12.60;99.90;;;;;;4953684;28;20615;-70
2021/05/25 06:08:18;;;;;;;4.70;4.23;;;12.80;99.90;;;;;;4974186;28;21647;-70
2021/05/25 06:10:51;;;;;;;4.27;3.97;;;12.80;99.90;;;;;;4972373;28;20226;-69
2021/05/25 06:13:21;;;;;;;4.43;4.13;;;12.80;99.90;;;;;;4979102;28;20226;-70
2021/05/25 06:15:51;;;;;;;4.43;4.10;;;12.80;99.90;;;;;;4976849;28;20629;-70
2021/05/25 06:18:17;;;;;;;5.13;4.73;;;12.90;99.90;;;;;;4978288;28;20640;-69
2021/05/25 06:20:42;;;;;;;4.80;4.30;;;12.70;99.90;;;;;;4971837;28;20652;-69
2021/05/25 06:23:08;;;;;;;5.00;4.60;;;12.80;99.90;;;;;;4987788;28;21243;-69
2021/05/25 06:25:33;;;;;;;4.90;4.50;;;12.70;99.90;;;;;;4972815;28;20662;-70
2021/05/25 06:27:59;;;;;;;5.20;4.80;;;12.80;99.90;;;;;;4973947;28;20903;-70
2021/05/25 06:30:25;;;;;;;6.23;5.63;;;12.90;99.90;;;;;;4982187;28;20221;-70
2021/05/25 06:32:51;;;;;;;5.53;5.07;;;12.80;99.90;;;;;;4975900;28;22015;-69
2021/05/25 06:35:16;;;;;;;6.03;5.50;;;12.80;99.90;;;;;;4973538;28;20975;-69
2021/05/25 06:37:43;;;;;;;6.73;6.13;;;12.70;99.90;;;;;;4985261;28;20272;-69
2021/05/25 06:40:12;;;;;;;7.00;6.37;;;12.80;99.90;;;;;;4983015;28;20759;-69
2021/05/25 06:42:37;;;;;;;7.17;6.57;;;12.70;99.90;;;;;;5015157;28;20627;-69
2021/05/25 06:45:09;;;;;;;6.80;6.30;;;12.70;99.90;;;;;;4985382;28;20644;-72
2021/05/25 06:47:36;;;;;;;7.13;6.53;;;12.60;99.90;;;;;;4990684;28;20213;-71
2021/05/25 06:50:02;;;;;;;7.57;6.93;;;12.50;99.90;;;;;;4983564;28;20692;-70
2021/05/25 06:52:28;;;;;;;7.03;6.43;;;12.30;99.90;;;;;;4989213;28;20612;-71
2021/05/25 06:54:53;;;;;;;7.27;6.57;;;12.40;99.90;;;;;;4990354;28;21075;-71
2021/05/25 06:57:19;;;;;;;6.43;5.90;;;12.30;99.90;;;;;;4986017;28;20185;-70
2021/05/25 06:59:44;;;;;;;7.47;6.77;;;12.40;99.90;;;;;;4985600;28;20217;-70
2021/05/25 07:02:10;;;;;;;6.77;6.17;;;12.50;99.90;;;;;;4976471;28;20210;-70
2021/05/25 07:04:36;;;;;;;6.97;6.37;;;12.50;99.90;;;;;;4975263;28;20217;-70
2021/05/25 07:07:02;;;;;;;7.40;6.70;;;12.50;99.90;;;;;;4985373;28;20649;-71
2021/05/25 07:09:28;;;;;;;7.50;6.90;;;12.50;99.90;;;;;;4972063;28;20533;-70
2021/05/25 07:11:55;;;;;;;7.30;6.60;;;12.50;99.90;;;;;;4974995;28;20642;-72
2021/05/25 07:14:21;;;;;;;6.00;5.50;;;12.70;99.90;;;;;;4985486;28;20717;-71
2021/05/25 07:16:46;;;;;;;6.80;6.20;;;12.60;99.90;;;;;;4991575;28;20616;-70
2021/05/25 07:19:12;;;;;;;5.93;5.40;;;12.50;99.90;;;;;;4999525;28;23814;-71
2021/05/25 07:21:37;;;;;;;4.53;4.23;;;12.50;99.90;;;;;;4982566;28;24098;-70
2021/05/25 07:24:03;;;;;;;5.40;4.90;;;12.60;99.90;;;;;;4993450;28;20225;-70
2021/05/25 07:26:29;;;;;;;5.30;4.90;;;12.60;99.90;;;;;;4983994;28;20197;-70
2021/05/25 07:28:54;;;;;;;5.00;4.60;;;12.60;99.90;;;;;;4980263;28;20224;-70
2021/05/25 07:31:20;;;;;;;5.40;5.00;;;12.70;99.90;;;;;;4980505;28;20277;-69
2021/05/25 07:33:46;;;;;;;5.80;4.60;;;12.70;99.90;;;;;;4985773;28;20715;-69
2021/05/25 07:36:12;;;;;;;5.03;4.63;;;12.70;99.90;;;;;;4985340;28;20241;-69
2021/05/25 07:38:38;;;;;;;4.60;4.20;;;12.70;99.90;;;;;;4976862;28;20292;-69
2021/05/25 07:41:03;;;;;;;4.70;4.20;;;12.80;99.90;;;;;;4977713;28;20632;-70
2021/05/25 07:43:30;;;;;;;4.50;4.20;;;12.80;99.90;;;;;;4977108;28;20268;-70
2021/05/25 07:45:56;;;;;;;4.10;3.80;;;12.80;99.90;;;;;;4999604;28;20185;-71
2021/05/25 07:48:24;;;;;;;4.57;4.17;;;12.80;99.90;;;;;;4988182;28;20787;-71
2021/05/25 07:50:50;;;;;;;4.50;4.20;;;12.80;99.90;;;;;;4983570;28;20368;-69
2021/05/25 07:53:16;;;;;;;4.60;4.20;;;12.70;99.90;;;;;;4975480;28;20640;-70
2021/05/25 07:55:42;;;;;;;4.40;4.10;;;12.90;99.90;;;;;;4982552;28;20666;-70
2021/05/25 07:58:07;;;;;;;4.20;3.80;;;12.90;99.90;;;;;;5003923;28;21052;-70
2021/05/25 08:00:33;;;;;;;4.50;4.10;;;12.90;99.90;;;;;;4972066;28;20190;-69
2021/05/25 08:02:59;;;;;;;3.80;3.50;;;13.00;99.90;;;;;;5000991;28;20186;-69
2021/05/25 08:05:28;;;;;;;4.03;3.63;;;13.00;99.90;;;;;;4985574;28;20192;-69
2021/05/25 08:07:54;;;;;;;3.80;3.50;;;12.90;99.90;;;;;;4974927;28;20652;-68
2021/05/25 08:10:19;;;;;;;3.90;3.50;;;12.90;99.90;;;;;;5000164;28;21035;-70
2021/05/25 08:12:45;;;;;;;3.60;3.40;;;13.00;99.90;;;;;;4976032;28;20619;-70
2021/05/25 08:15:16;;;;;;;2.87;2.67;;;12.90;99.90;;;;;;4968598;28;21201;-70
2021/05/25 08:20:22;;;;;;;2.83;2.63;;;13.00;99.90;;;;;;4971517;28;20958;-70
2021/05/25 08:22:56;;;;;;;2.77;2.50;;;13.10;99.90;;;;;;4975759;28;21667;-70
2021/05/25 08:25:25;;;;;;;3.20;3.00;;;13.10;99.90;;;;;;4966690;28;20622;-70
2021/05/25 08:27:55;;;;;;;3.53;2.90;;;13.20;99.90;;;;;;4996687;28;21950;-70
2021/05/25 08:30:24;;;;;;;2.70;2.50;;;13.10;99.90;;;;;;4977116;28;20663;-70
2021/05/25 08:32:50;;;;;;;2.70;2.50;;;13.00;99.90;;;;;;4988763;28;21384;-70
2021/05/25 08:35:17;;;;;;;2.70;2.50;;;13.20;99.90;;;;;;4981612;28;21074;-69
2021/05/25 08:37:47;;;;;;;2.87;2.67;;;13.20;99.90;;;;;;4985218;28;20659;-69
2021/05/25 08:40:14;;;;;;;3.10;2.83;;;13.20;99.90;;;;;;5015103;28;21222;-69
2021/05/25 08:42:40;;;;;;;3.60;2.90;;;13.30;99.90;;;;;;4978827;28;20670;-68
2021/05/25 08:45:09;;;;;;;2.90;2.70;;;13.40;99.90;;;;;;4968549;28;22081;-71
2021/05/25 08:47:35;;;;;;;2.53;2.43;;;13.20;99.90;;;;;;4979240;28;20189;-71
2021/05/25 08:50:06;;;;;;;3.03;2.77;;;13.10;99.90;;;;;;4976129;28;21032;-70
2021/05/25 08:52:35;;;;;;;2.80;2.60;;;13.20;99.90;;;;;;4984574;28;21459;-70
2021/05/25 08:55:02;;;;;;;3.00;2.80;;;13.30;99.90;;;;;;4991394;28;20739;-71
2021/05/25 08:57:28;;;;;;;3.40;3.10;;;13.30;99.90;;;;;;4968471;28;20841;-70
2021/05/25 08:59:53;;;;;;;3.47;3.27;;;13.20;99.90;;;;;;4968266;28;20655;-70
2021/05/25 09:02:22;;;;;;;3.50;3.20;;;13.30;99.90;;;;;;4961304;28;20578;-71
2021/05/25 09:05:18;;;;;;;3.83;3.50;;;13.20;99.90;;;;;;4978137;28;20230;-71
2021/05/25 09:07:50;;;;;;;3.37;3.17;;;13.20;99.90;;;;;;4975329;28;21180;-69
2021/05/25 09:10:21;;;;;;;3.37;3.17;;;13.10;99.90;;;;;;4973138;28;20740;-69
2021/05/25 09:12:51;;;;;;;4.50;3.40;;;13.30;99.90;;;;;;4975697;28;20893;-69
2021/05/25 09:15:37;;;;;;;4.00;3.70;;;13.30;99.90;;;;;;4970819;28;20612;-69
2021/05/25 09:18:08;;;;;;;4.37;3.97;;;13.30;99.90;;;;;;4983916;28;20619;-70
2021/05/25 09:20:42;;;;;;;4.60;4.20;;;13.30;99.90;;;;;;5000744;28;20715;-70
2021/05/25 09:23:11;;;;;;;4.60;4.20;;;13.20;99.90;;;;;;4997788;28;20756;-70
2021/05/25 09:25:45;;;;;;;4.70;3.97;;;13.20;99.90;;;;;;5012940;28;20635;-69
2021/05/25 09:28:15;;;;;;;4.70;4.30;;;13.20;99.90;;;;;;4999327;28;20643;-70
2021/05/25 09:30:42;;;;;;;6.13;4.47;;;13.20;99.90;;;;;;4995771;28;20654;-72
2021/05/25 09:33:11;;;;;;;4.47;4.13;;;13.20;99.90;;;;;;4978505;28;22616;-69
2021/05/25 09:35:42;;;;;;;4.23;3.87;;;13.30;99.90;;;;;;4967665;28;20608;-70
2021/05/25 09:38:10;;;;;;;5.03;4.50;;;13.30;99.90;;;;;;5002590;28;21539;-69
2021/05/25 09:40:38;;;;;;;4.83;4.47;;;13.30;99.90;;;;;;5012189;28;20715;-69
2021/05/25 09:43:23;;;;;;;5.77;4.77;;;13.30;99.90;;;;;;5007331;28;21207;-69
2021/05/25 09:45:55;;;;;;;5.73;5.23;;;13.40;99.90;;;;;;4984350;28;20618;-70
2021/05/25 09:48:22;;;;;;;6.07;5.47;;;13.50;99.90;;;;;;4999398;28;20745;-69
2021/05/25 09:50:49;;;;;;;5.13;4.67;;;13.70;99.90;;;;;;4999146;28;20651;-71
2021/05/25 09:53:21;;;;;;;5.13;4.63;;;13.60;99.90;;;;;;4988691;28;20624;-69
2021/05/25 09:56:05;;;;;;;4.80;4.37;;;13.70;99.90;;;;;;4972611;28;20617;-69
2021/05/25 09:58:34;;;;;;;5.40;4.90;;;13.70;99.90;;;;;;4983768;28;20656;-70
2021/05/25 10:01:01;;;;;;;5.10;4.60;;;13.80;99.90;;;;;;5006023;28;20691;-69
2021/05/25 10:03:27;;;;;;;5.03;4.57;;;13.90;99.90;;;;;;4982757;28;20632;-69
2021/05/25 10:05:54;;;;;;;5.47;4.97;;;14.00;99.90;;;;;;4990443;28;20612;-69
2021/05/25 10:08:23;;;;;;;4.97;4.53;;;14.00;99.90;;;;;;4990546;28;21222;-69
2021/05/25 10:10:54;;;;;;;4.47;4.07;;;14.20;99.90;;;;;;4984471;28;20761;-69
2021/05/25 10:13:26;;;;;;;4.93;4.40;;;14.30;99.90;;;;;;4977847;28;20636;-69
2021/05/25 10:15:56;;;;;;;4.53;4.13;;;14.20;99.90;;;;;;4986149;28;20619;-70
2021/05/25 10:20:56;;;;;;;4.70;3.83;;;14.10;99.90;;;;;;4981159;28;20631;-69
2021/05/25 10:23:23;;;;;;;3.90;3.60;;;14.00;99.90;;;;;;4994816;28;22949;-69
2021/05/25 10:25:52;;;;;;;6.10;4.43;;;14.00;99.90;;;;;;4989309;28;20380;-70
2021/05/25 10:28:20;;;;;;;4.40;4.00;;;14.00;99.90;;;;;;4984373;28;21247;-70
2021/05/25 10:30:51;;;;;;;4.30;4.00;;;13.90;99.90;;;;;;4984587;28;20753;-70
2021/05/25 10:33:16;;;;;;;5.93;4.80;;;13.90;99.90;;;;;;4985213;28;20629;-70
2021/05/25 10:35:56;;;;;;;5.80;4.63;;;13.90;99.90;;;;;;4991529;28;20612;-69
2021/05/25 10:38:23;;;;;;;6.80;4.90;;;13.90;99.90;;;;;;5001192;28;20606;-70
2021/05/25 10:40:51;;;;;;;6.00;5.50;;;14.00;99.90;;;;;;4975074;28;20619;-69
2021/05/25 10:43:33;;;;;;;6.30;5.47;;;14.10;99.90;;;;;;4971656;28;20668;-69
2021/05/25 10:46:10;;;;;;;5.57;4.93;;;14.10;99.90;;;;;;4984992;28;24076;-70
2021/05/25 10:51:49;;;;;;;5.87;5.37;;;14.00;99.90;;;;;;4973277;28;20712;-71
2021/05/25 10:54:26;;;;;;;5.13;4.70;;;14.00;99.90;;;;;;4981109;28;20648;-69
2021/05/25 10:56:52;;;;;;;7.30;4.63;;;14.00;99.90;;;;;;4975978;28;20612;-69
2021/05/25 10:59:21;;;;;;;5.20;4.50;;;14.10;99.90;;;;;;4977364;28;20644;-69
2021/05/25 11:01:57;;;;;;;7.93;5.00;;;14.30;99.90;;;;;;5007524;28;20623;-70
2021/05/25 11:04:43;;;;;;;5.47;4.97;;;14.50;99.90;;;;;;4975833;28;21242;-72
2021/05/25 11:07:37;;;;;;;7.57;4.90;;;14.40;99.90;;;;;;4976271;28;20621;-70
2021/05/25 11:10:28;;;;;;;5.67;5.10;;;14.50;99.90;;;;;;4978262;28;20663;-71
2021/05/25 11:13:20;;;;;;;5.07;4.57;;;14.30;99.90;;;;;;4974195;28;20604;-69
2021/05/25 11:16:13;;;;;;;4.93;4.53;;;14.20;99.90;;;;;;4975745;28;20679;-70
2021/05/25 11:24:36;;;;;;;5.33;3.60;;;14.30;99.90;;;;;;4986119;28;20640;-70
2021/05/25 11:27:30;;;;;;;4.20;3.53;;;14.50;99.90;;;;;;5020132;28;20711;-71
2021/05/25 11:30:01;;;;;;;4.17;3.87;;;14.50;99.90;;;;;;5015027;28;20668;-69
2021/05/25 11:32:47;;;;;;;5.87;3.60;;;14.70;99.90;;;;;;4986245;28;20628;-70
2021/05/25 11:35:18;;;;;;;3.63;3.43;;;14.80;99.90;;;;;;5006613;28;20689;-69
2021/05/25 11:37:46;;;;;;;3.27;2.97;;;15.00;99.90;;;;;;4993500;28;20624;-71
2021/05/25 11:40:14;;;;;;;4.40;3.10;;;15.20;99.90;;;;;;4980717;28;20691;-70
2021/05/25 11:42:45;;;;;;;3.20;2.50;;;15.40;99.90;;;;;;4994678;22;21202;-71
2021/05/25 11:45:11;;;;;;;3.03;2.73;;;15.60;99.90;;;;;;4955327;28;20657;-72
2021/05/25 11:47:38;;;;;;;4.13;2.70;;;15.80;99.90;;;;;;4971141;28;20688;-71
2021/05/25 11:50:07;;;;;;;2.80;2.50;;;16.10;99.90;;;;;;4947702;28;20791;-72
2021/05/25 11:52:35;;;;;;;3.07;2.87;;;16.30;99.90;;;;;;4955746;28;21115;-70
2021/05/25 11:55:09;;;;;;;3.17;2.60;;;16.30;99.90;;;;;;4966069;28;20732;-71
2021/05/25 11:57:40;;;;;;;3.47;2.87;;;16.40;99.90;;;;;;4959964;28;20628;-71
2021/05/25 12:00:09;;;;;;;2.60;2.40;;;16.30;99.90;;;;;;4964871;28;20665;-71
2021/05/25 12:02:35;;;;;;;3.93;2.63;;;16.40;99.90;;;;;;4960256;28;20633;-71
2021/05/25 12:05:04;;;;;;;2.90;2.70;;;16.70;99.90;;;;;;4990679;28;20648;-71
2021/05/25 12:07:29;;;;;;;2.90;2.70;;;16.80;99.90;;;;;;4980048;28;20976;-71
2021/05/25 12:09:58;;;;;;;2.67;2.30;;;16.80;99.90;;;;;;4980063;28;20713;-71
2021/05/25 12:12:26;;;;;;;4.00;3.00;;;16.90;99.90;;;;;;4979238;28;20693;-71
2021/05/25 12:14:58;;;;;;;2.73;2.57;;;16.80;99.90;;;;;;4984853;28;21250;-71
2021/05/25 12:17:25;;;;;;;2.50;2.40;;;17.00;99.90;;;;;;4971951;28;20621;-71
2021/05/25 12:19:53;;;;;;;2.73;2.53;;;16.70;99.90;;;;;;4979230;28;21313;-71
2021/05/25 12:22:33;;;;;;;3.43;3.00;;;16.50;99.90;;;;;;4979953;28;21107;-70
2021/05/25 12:25:21;;;;;;;3.40;3.10;;;16.40;99.90;;;;;;4973817;28;21518;-71
2021/05/25 12:28:09;;;;;;;2.90;2.33;;;16.40;99.90;;;;;;4976034;28;20621;-71
2021/05/25 12:30:36;;;;;;;3.57;2.87;;;16.30;99.90;;;;;;4978392;28;20660;-71
2021/05/25 12:33:05;;;;;;;2.70;2.50;;;16.10;99.90;;;;;;4981292;28;21129;-71
2021/05/25 12:35:31;;;;;;;3.60;2.70;;;16.00;99.90;;;;;;4976727;28;21413;-71
2021/05/25 12:38:02;;;;;;;2.77;2.57;;;16.10;99.90;;;;;;4968923;28;20635;-72
2021/05/25 12:40:30;;;;;;;3.40;3.10;;;16.20;99.90;;;;;;4977290;28;20197;-71
2021/05/25 12:42:55;;;;;;;3.00;2.77;;;16.20;99.90;;;;;;4973091;28;21123;-70
2021/05/25 12:45:25;;;;;;;3.10;2.80;;;16.10;99.90;;;;;;4974517;28;20632;-71
2021/05/25 12:47:53;;;;;;;4.10;3.00;;;16.10;99.90;;;;;;4981247;28;20190;-71
2021/05/25 12:50:38;;;;;;;4.20;3.07;;;16.20;99.90;;;;;;4971803;28;20657;-71
2021/05/25 12:53:04;;;;;;;4.90;2.80;;;16.20;99.90;;;;;;4979250;28;21113;-71
2021/05/25 12:55:30;;;;;;;2.47;2.27;;;16.20;99.90;;;;;;4986727;28;20687;-71
2021/05/25 12:57:56;;;;;;;2.30;2.13;;;16.20;99.90;;;;;;4984838;28;21198;-71
2021/05/25 13:00:34;;;;;;;3.20;2.90;;;16.20;99.90;;;;;;4982727;28;20620;-71
2021/05/25 13:03:01;;;;;;;3.40;3.10;;;16.30;99.90;;;;;;4976298;28;21630;-71
2021/05/25 13:05:28;;;;;;;3.67;2.50;;;16.00;99.90;;;;;;4980369;28;21306;-71
2021/05/25 13:08:09;;;;;;;3.80;2.50;;;15.90;99.90;;;;;;4972201;28;20635;-71